sensor_id;sensor_type;location;lat;lon;timestamp;P1;durP1;ratioP1;P2;durP2;ratioP2
22851;SDS011;11592;45.460;9.240;2022-07-01T00:01:44;2.28;;;1.20;;
22851;SDS011;11592;45.460;9.240;2022-07-01T00:04:13;2.08;;;1.20;;
22851;SDS011;11592;45.460;9.240;2022-07-01T00:06:40;3.78;;;1.20;;
22851;SDS011;11592;45.460;9.240;2022-07-01T00:09:07;2.28;;;1.02;;
22851;SDS011;11592;45.460;9.240;2022-07-01T00:11:35;1.40;;;1.00;;
22851;SDS011;11592;45.460;9.240;2022-07-01T00:14:02;1.23;;;0.85;;
22851;SDS011;11592;45.460;9.240;2022-07-01T00:16:29;3.97;;;1.15;;
22851;SDS011;11592;45.460;9.240;2022-07-01T00:18:56;4.63;;;1.33;;
22851;SDS011;11592;45.460;9.240;2022-07-01T00:21:23;4.78;;;1.50;;
22851;SDS011;11592;45.460;9.240;2022-07-01T00:23:49;3.53;;;1.40;;
22851;SDS011;11592;45.460;9.240;2022-07-01T00:26:16;4.13;;;1.65;;
22851;SDS011;11592;45.460;9.240;2022-07-01T00:28:43;4.15;;;1.58;;
22851;SDS011;11592;45.460;9.240;2022-07-01T00:31:10;3.55;;;1.60;;
22851;SDS011;11592;45.460;9.240;2022-07-01T00:33:37;4.95;;;1.65;;
22851;SDS011;11592;45.460;9.240;2022-07-01T00:36:04;5.28;;;1.63;;
22851;SDS011;11592;45.460;9.240;2022-07-01T00:38:31;3.80;;;1.80;;
22851;SDS011;11592;45.460;9.240;2022-07-01T00:40:58;5.93;;;1.60;;
22851;SDS011;11592;45.460;9.240;2022-07-01T00:43:24;2.83;;;1.67;;
22851;SDS011;11592;45.460;9.240;2022-07-01T00:46:12;4.25;;;1.88;;
22851;SDS011;11592;45.460;9.240;2022-07-01T00:48:39;4.18;;;1.65;;
22851;SDS011;11592;45.460;9.240;2022-07-01T00:51:06;3.08;;;1.55;;
22851;SDS011;11592;45.460;9.240;2022-07-01T00:53:34;5.82;;;1.67;;
22851;SDS011;11592;45.460;9.240;2022-07-01T00:56:01;5.40;;;1.75;;
22851;SDS011;11592;45.460;9.240;2022-07-01T00:58:29;4.32;;;1.70;;
22851;SDS011;11592;45.460;9.240;2022-07-01T01:00:57;8.27;;;2.40;;
22851;SDS011;11592;45.460;9.240;2022-07-01T01:03:25;15.52;;;3.17;;
22851;SDS011;11592;45.460;9.240;2022-07-01T01:05:53;13.38;;;2.55;;
22851;SDS011;11592;45.460;9.240;2022-07-01T01:08:23;14.10;;;3.08;;
22851;SDS011;11592;45.460;9.240;2022-07-01T01:10:52;16.23;;;2.88;;
22851;SDS011;11592;45.460;9.240;2022-07-01T01:13:20;12.90;;;3.30;;
22851;SDS011;11592;45.460;9.240;2022-07-01T01:15:47;11.63;;;2.60;;
22851;SDS011;11592;45.460;9.240;2022-07-01T01:18:14;9.93;;;3.53;;
22851;SDS011;11592;45.460;9.240;2022-07-01T01:20:41;18.42;;;3.08;;
22851;SDS011;11592;45.460;9.240;2022-07-01T01:23:08;16.27;;;2.97;;
22851;SDS011;11592;45.460;9.240;2022-07-01T01:25:34;9.10;;;2.17;;
22851;SDS011;11592;45.460;9.240;2022-07-01T01:28:02;3.40;;;1.80;;
22851;SDS011;11592;45.460;9.240;2022-07-01T01:30:29;3.78;;;1.40;;
22851;SDS011;11592;45.460;9.240;2022-07-01T01:32:57;2.85;;;1.58;;
22851;SDS011;11592;45.460;9.240;2022-07-01T01:35:23;2.90;;;1.92;;
22851;SDS011;11592;45.460;9.240;2022-07-01T01:37:50;4.90;;;1.50;;
22851;SDS011;11592;45.460;9.240;2022-07-01T01:40:18;2.20;;;1.33;;
22851;SDS011;11592;45.460;9.240;2022-07-01T01:42:45;2.20;;;1.42;;
22851;SDS011;11592;45.460;9.240;2022-07-01T01:45:12;3.70;;;1.33;;
22851;SDS011;11592;45.460;9.240;2022-07-01T01:47:40;3.70;;;1.48;;
22851;SDS011;11592;45.460;9.240;2022-07-01T01:50:07;2.63;;;1.35;;
22851;SDS011;11592;45.460;9.240;2022-07-01T01:52:35;5.13;;;1.40;;
22851;SDS011;11592;45.460;9.240;2022-07-01T01:55:05;7.15;;;1.50;;
22851;SDS011;11592;45.460;9.240;2022-07-01T01:57:31;5.65;;;1.73;;
22851;SDS011;11592;45.460;9.240;2022-07-01T01:59:58;3.78;;;1.30;;
22851;SDS011;11592;45.460;9.240;2022-07-01T02:02:25;6.13;;;1.67;;
22851;SDS011;11592;45.460;9.240;2022-07-01T02:04:52;4.57;;;1.58;;
22851;SDS011;11592;45.460;9.240;2022-07-01T02:07:19;4.53;;;1.40;;
22851;SDS011;11592;45.460;9.240;2022-07-01T02:09:46;7.40;;;1.95;;
22851;SDS011;11592;45.460;9.240;2022-07-01T02:12:13;2.03;;;1.40;;
22851;SDS011;11592;45.460;9.240;2022-07-01T02:14:39;5.45;;;1.58;;
22851;SDS011;11592;45.460;9.240;2022-07-01T02:17:07;3.17;;;1.70;;
22851;SDS011;11592;45.460;9.240;2022-07-01T02:19:34;2.15;;;1.40;;
22851;SDS011;11592;45.460;9.240;2022-07-01T02:22:00;7.30;;;1.65;;
22851;SDS011;11592;45.460;9.240;2022-07-01T02:24:27;4.00;;;1.38;;
22851;SDS011;11592;45.460;9.240;2022-07-01T02:26:54;1.90;;;1.65;;
22851;SDS011;11592;45.460;9.240;2022-07-01T02:29:21;2.83;;;1.40;;
22851;SDS011;11592;45.460;9.240;2022-07-01T02:31:48;5.10;;;1.42;;
22851;SDS011;11592;45.460;9.240;2022-07-01T02:34:15;5.38;;;1.65;;
22851;SDS011;11592;45.460;9.240;2022-07-01T02:36:42;5.47;;;1.75;;
22851;SDS011;11592;45.460;9.240;2022-07-01T02:39:08;2.40;;;1.40;;
22851;SDS011;11592;45.460;9.240;2022-07-01T02:41:35;5.13;;;1.55;;
22851;SDS011;11592;45.460;9.240;2022-07-01T02:44:22;5.18;;;1.80;;
22851;SDS011;11592;45.460;9.240;2022-07-01T02:46:49;4.03;;;1.50;;
22851;SDS011;11592;45.460;9.240;2022-07-01T02:49:16;4.47;;;1.50;;
22851;SDS011;11592;45.460;9.240;2022-07-01T02:51:43;3.80;;;1.70;;
22851;SDS011;11592;45.460;9.240;2022-07-01T02:54:09;3.90;;;1.50;;
22851;SDS011;11592;45.460;9.240;2022-07-01T02:56:36;3.60;;;1.70;;
22851;SDS011;11592;45.460;9.240;2022-07-01T02:59:03;5.25;;;2.03;;
22851;SDS011;11592;45.460;9.240;2022-07-01T03:01:30;5.53;;;2.08;;
22851;SDS011;11592;45.460;9.240;2022-07-01T03:03:57;6.80;;;2.15;;
22851;SDS011;11592;45.460;9.240;2022-07-01T03:06:23;4.95;;;2.17;;
22851;SDS011;11592;45.460;9.240;2022-07-01T03:08:50;4.43;;;2.35;;
22851;SDS011;11592;45.460;9.240;2022-07-01T03:11:17;8.18;;;2.75;;
22851;SDS011;11592;45.460;9.240;2022-07-01T03:13:44;8.25;;;2.88;;
22851;SDS011;11592;45.460;9.240;2022-07-01T03:16:11;5.43;;;2.85;;
22851;SDS011;11592;45.460;9.240;2022-07-01T03:18:38;7.40;;;3.10;;
22851;SDS011;11592;45.460;9.240;2022-07-01T03:21:05;6.63;;;3.30;;
22851;SDS011;11592;45.460;9.240;2022-07-01T03:23:31;6.45;;;3.55;;
22851;SDS011;11592;45.460;9.240;2022-07-01T03:25:58;12.07;;;4.80;;
22851;SDS011;11592;45.460;9.240;2022-07-01T03:28:25;13.15;;;4.97;;
22851;SDS011;11592;45.460;9.240;2022-07-01T03:30:52;12.38;;;5.72;;
22851;SDS011;11592;45.460;9.240;2022-07-01T03:33:19;14.48;;;6.45;;
22851;SDS011;11592;45.460;9.240;2022-07-01T03:35:45;17.20;;;7.32;;
22851;SDS011;11592;45.460;9.240;2022-07-01T03:38:12;15.27;;;8.93;;
22851;SDS011;11592;45.460;9.240;2022-07-01T03:40:39;13.65;;;8.65;;
22851;SDS011;11592;45.460;9.240;2022-07-01T03:43:06;16.00;;;8.13;;
22851;SDS011;11592;45.460;9.240;2022-07-01T03:45:32;18.40;;;9.25;;
22851;SDS011;11592;45.460;9.240;2022-07-01T03:47:59;15.48;;;9.57;;
22851;SDS011;11592;45.460;9.240;2022-07-01T03:50:26;16.30;;;10.02;;
22851;SDS011;11592;45.460;9.240;2022-07-01T03:52:54;18.23;;;10.15;;
22851;SDS011;11592;45.460;9.240;2022-07-01T03:55:39;25.27;;;10.40;;
22851;SDS011;11592;45.460;9.240;2022-07-01T03:58:06;21.52;;;10.02;;
22851;SDS011;11592;45.460;9.240;2022-07-01T04:00:34;20.48;;;8.60;;
22851;SDS011;11592;45.460;9.240;2022-07-01T04:03:03;18.15;;;8.57;;
22851;SDS011;11592;45.460;9.240;2022-07-01T04:05:34;15.65;;;8.55;;
22851;SDS011;11592;45.460;9.240;2022-07-01T04:08:06;20.05;;;9.60;;
22851;SDS011;11592;45.460;9.240;2022-07-01T04:10:34;17.35;;;9.07;;
22851;SDS011;11592;45.460;9.240;2022-07-01T04:13:01;24.67;;;10.55;;
22851;SDS011;11592;45.460;9.240;2022-07-01T04:15:49;26.63;;;9.73;;
22851;SDS011;11592;45.460;9.240;2022-07-01T04:18:16;19.58;;;9.93;;
22851;SDS011;11592;45.460;9.240;2022-07-01T04:20:43;18.00;;;10.23;;
22851;SDS011;11592;45.460;9.240;2022-07-01T04:23:30;19.42;;;10.70;;
22851;SDS011;11592;45.460;9.240;2022-07-01T04:25:56;20.48;;;9.88;;
22851;SDS011;11592;45.460;9.240;2022-07-01T04:28:43;16.23;;;8.73;;
22851;SDS011;11592;45.460;9.240;2022-07-01T04:31:10;17.80;;;8.35;;
22851;SDS011;11592;45.460;9.240;2022-07-01T04:33:37;13.73;;;7.13;;
22851;SDS011;11592;45.460;9.240;2022-07-01T04:36:04;11.45;;;7.35;;
22851;SDS011;11592;45.460;9.240;2022-07-01T04:38:31;14.23;;;7.82;;
22851;SDS011;11592;45.460;9.240;2022-07-01T04:40:57;17.20;;;7.05;;
22851;SDS011;11592;45.460;9.240;2022-07-01T04:43:43;14.68;;;7.07;;
22851;SDS011;11592;45.460;9.240;2022-07-01T04:46:10;11.52;;;6.25;;
22851;SDS011;11592;45.460;9.240;2022-07-01T04:48:37;12.30;;;6.80;;
22851;SDS011;11592;45.460;9.240;2022-07-01T04:51:03;11.18;;;6.20;;
22851;SDS011;11592;45.460;9.240;2022-07-01T04:53:30;13.75;;;6.40;;
22851;SDS011;11592;45.460;9.240;2022-07-01T04:55:57;13.77;;;6.55;;
22851;SDS011;11592;45.460;9.240;2022-07-01T04:58:24;14.98;;;6.60;;
22851;SDS011;11592;45.460;9.240;2022-07-01T05:00:51;12.70;;;7.65;;
22851;SDS011;11592;45.460;9.240;2022-07-01T05:03:18;13.35;;;7.15;;
22851;SDS011;11592;45.460;9.240;2022-07-01T05:05:45;14.00;;;7.63;;
22851;SDS011;11592;45.460;9.240;2022-07-01T05:08:12;14.55;;;7.68;;
22851;SDS011;11592;45.460;9.240;2022-07-01T05:10:39;13.85;;;7.07;;
22851;SDS011;11592;45.460;9.240;2022-07-01T05:13:05;17.15;;;8.90;;
22851;SDS011;11592;45.460;9.240;2022-07-01T05:15:33;14.93;;;9.43;;
22851;SDS011;11592;45.460;9.240;2022-07-01T05:18:00;22.40;;;8.20;;
22851;SDS011;11592;45.460;9.240;2022-07-01T05:20:45;16.65;;;9.18;;
22851;SDS011;11592;45.460;9.240;2022-07-01T05:23:35;15.77;;;10.05;;
22851;SDS011;11592;45.460;9.240;2022-07-01T05:26:02;19.83;;;11.55;;
22851;SDS011;11592;45.460;9.240;2022-07-01T05:28:30;18.55;;;10.77;;
22851;SDS011;11592;45.460;9.240;2022-07-01T05:30:57;15.02;;;10.20;;
22851;SDS011;11592;45.460;9.240;2022-07-01T05:33:24;16.05;;;10.05;;
22851;SDS011;11592;45.460;9.240;2022-07-01T05:35:53;19.88;;;10.95;;
22851;SDS011;11592;45.460;9.240;2022-07-01T05:38:20;17.45;;;10.73;;
22851;SDS011;11592;45.460;9.240;2022-07-01T05:40:47;23.02;;;11.75;;
22851;SDS011;11592;45.460;9.240;2022-07-01T05:43:14;19.42;;;11.95;;
22851;SDS011;11592;45.460;9.240;2022-07-01T05:45:41;28.23;;;14.15;;
22851;SDS011;11592;45.460;9.240;2022-07-01T05:48:08;30.73;;;14.73;;
22851;SDS011;11592;45.460;9.240;2022-07-01T05:50:35;20.75;;;11.45;;
22851;SDS011;11592;45.460;9.240;2022-07-01T05:53:02;21.42;;;12.18;;
22851;SDS011;11592;45.460;9.240;2022-07-01T05:55:29;23.50;;;12.95;;
22851;SDS011;11592;45.460;9.240;2022-07-01T05:57:56;20.90;;;12.27;;
22851;SDS011;11592;45.460;9.240;2022-07-01T06:00:22;25.95;;;12.55;;
22851;SDS011;11592;45.460;9.240;2022-07-01T06:02:50;19.85;;;11.65;;
22851;SDS011;11592;45.460;9.240;2022-07-01T06:05:20;20.02;;;13.05;;
22851;SDS011;11592;45.460;9.240;2022-07-01T06:07:47;21.52;;;12.43;;
22851;SDS011;11592;45.460;9.240;2022-07-01T06:10:13;19.75;;;13.75;;
22851;SDS011;11592;45.460;9.240;2022-07-01T06:12:40;22.52;;;13.23;;
22851;SDS011;11592;45.460;9.240;2022-07-01T06:15:08;27.25;;;12.07;;
22851;SDS011;11592;45.460;9.240;2022-07-01T06:17:37;20.40;;;13.02;;
22851;SDS011;11592;45.460;9.240;2022-07-01T06:20:06;21.25;;;12.30;;
22851;SDS011;11592;45.460;9.240;2022-07-01T06:22:33;19.70;;;12.57;;
22851;SDS011;11592;45.460;9.240;2022-07-01T06:25:01;18.50;;;12.13;;
22851;SDS011;11592;45.460;9.240;2022-07-01T06:27:28;21.38;;;11.75;;
22851;SDS011;11592;45.460;9.240;2022-07-01T06:29:55;20.70;;;14.73;;
22851;SDS011;11592;45.460;9.240;2022-07-01T06:32:22;26.45;;;16.55;;
22851;SDS011;11592;45.460;9.240;2022-07-01T06:34:48;23.65;;;14.18;;
22851;SDS011;11592;45.460;9.240;2022-07-01T06:37:15;20.02;;;13.05;;
22851;SDS011;11592;45.460;9.240;2022-07-01T06:39:42;24.48;;;14.27;;
22851;SDS011;11592;45.460;9.240;2022-07-01T06:42:09;22.25;;;13.88;;
22851;SDS011;11592;45.460;9.240;2022-07-01T06:44:35;30.85;;;17.92;;
22851;SDS011;11592;45.460;9.240;2022-07-01T06:47:03;25.65;;;15.70;;
22851;SDS011;11592;45.460;9.240;2022-07-01T06:49:30;22.92;;;15.23;;
22851;SDS011;11592;45.460;9.240;2022-07-01T06:51:57;23.80;;;17.02;;
22851;SDS011;11592;45.460;9.240;2022-07-01T06:54:23;29.15;;;17.88;;
22851;SDS011;11592;45.460;9.240;2022-07-01T06:56:50;28.10;;;16.63;;
22851;SDS011;11592;45.460;9.240;2022-07-01T06:59:17;28.88;;;15.80;;
22851;SDS011;11592;45.460;9.240;2022-07-01T07:01:44;25.27;;;14.77;;
22851;SDS011;11592;45.460;9.240;2022-07-01T07:04:11;21.08;;;13.93;;
22851;SDS011;11592;45.460;9.240;2022-07-01T07:06:37;26.45;;;16.40;;
22851;SDS011;11592;45.460;9.240;2022-07-01T07:09:04;26.52;;;17.35;;
22851;SDS011;11592;45.460;9.240;2022-07-01T07:11:31;32.85;;;16.98;;
22851;SDS011;11592;45.460;9.240;2022-07-01T07:13:58;25.08;;;15.48;;
22851;SDS011;11592;45.460;9.240;2022-07-01T07:16:25;35.22;;;17.17;;
22851;SDS011;11592;45.460;9.240;2022-07-01T07:18:52;33.33;;;18.20;;
22851;SDS011;11592;45.460;9.240;2022-07-01T07:21:19;29.50;;;17.65;;
22851;SDS011;11592;45.460;9.240;2022-07-01T07:23:46;31.50;;;19.33;;
22851;SDS011;11592;45.460;9.240;2022-07-01T07:26:13;27.88;;;17.42;;
22851;SDS011;11592;45.460;9.240;2022-07-01T07:28:40;21.35;;;13.32;;
22851;SDS011;11592;45.460;9.240;2022-07-01T07:31:09;31.98;;;15.13;;
22851;SDS011;11592;45.460;9.240;2022-07-01T07:33:36;20.83;;;11.27;;
22851;SDS011;11592;45.460;9.240;2022-07-01T07:36:03;22.33;;;12.88;;
22851;SDS011;11592;45.460;9.240;2022-07-01T07:38:30;17.65;;;10.93;;
22851;SDS011;11592;45.460;9.240;2022-07-01T07:40:57;17.02;;;9.38;;
22851;SDS011;11592;45.460;9.240;2022-07-01T07:43:27;16.50;;;10.63;;
22851;SDS011;11592;45.460;9.240;2022-07-01T07:45:53;18.27;;;9.98;;
22851;SDS011;11592;45.460;9.240;2022-07-01T07:48:20;14.75;;;8.85;;
22851;SDS011;11592;45.460;9.240;2022-07-01T07:50:47;15.18;;;8.15;;
22851;SDS011;11592;45.460;9.240;2022-07-01T07:53:14;16.15;;;7.10;;
22851;SDS011;11592;45.460;9.240;2022-07-01T07:55:41;11.60;;;5.93;;
22851;SDS011;11592;45.460;9.240;2022-07-01T07:58:08;11.90;;;6.00;;
22851;SDS011;11592;45.460;9.240;2022-07-01T08:00:34;9.98;;;4.60;;
22851;SDS011;11592;45.460;9.240;2022-07-01T08:03:05;9.45;;;3.00;;
22851;SDS011;11592;45.460;9.240;2022-07-01T08:05:32;4.75;;;2.30;;
22851;SDS011;11592;45.460;9.240;2022-07-01T08:07:59;6.50;;;2.38;;
22851;SDS011;11592;45.460;9.240;2022-07-01T08:10:26;4.80;;;2.42;;
22851;SDS011;11592;45.460;9.240;2022-07-01T08:12:53;4.30;;;2.45;;
22851;SDS011;11592;45.460;9.240;2022-07-01T08:15:19;3.35;;;2.35;;
22851;SDS011;11592;45.460;9.240;2022-07-01T08:17:46;7.28;;;4.22;;
22851;SDS011;11592;45.460;9.240;2022-07-01T08:20:14;6.43;;;2.65;;
22851;SDS011;11592;45.460;9.240;2022-07-01T08:22:48;6.30;;;1.80;;
22851;SDS011;11592;45.460;9.240;2022-07-01T08:25:15;6.10;;;1.90;;
22851;SDS011;11592;45.460;9.240;2022-07-01T08:27:42;3.83;;;1.58;;
22851;SDS011;11592;45.460;9.240;2022-07-01T08:30:10;6.43;;;1.80;;
22851;SDS011;11592;45.460;9.240;2022-07-01T08:32:37;5.57;;;1.95;;
22851;SDS011;11592;45.460;9.240;2022-07-01T08:35:04;10.80;;;2.08;;
22851;SDS011;11592;45.460;9.240;2022-07-01T08:37:31;4.70;;;1.83;;
22851;SDS011;11592;45.460;9.240;2022-07-01T08:39:58;6.03;;;2.08;;
22851;SDS011;11592;45.460;9.240;2022-07-01T08:42:25;6.57;;;1.60;;
22851;SDS011;11592;45.460;9.240;2022-07-01T08:44:52;14.02;;;2.40;;
22851;SDS011;11592;45.460;9.240;2022-07-01T08:47:19;16.48;;;2.03;;
22851;SDS011;11592;45.460;9.240;2022-07-01T08:49:46;10.48;;;2.00;;
22851;SDS011;11592;45.460;9.240;2022-07-01T08:52:13;8.30;;;1.83;;
22851;SDS011;11592;45.460;9.240;2022-07-01T08:54:39;6.15;;;1.70;;
22851;SDS011;11592;45.460;9.240;2022-07-01T08:57:07;5.03;;;1.58;;
22851;SDS011;11592;45.460;9.240;2022-07-01T08:59:34;4.45;;;1.70;;
22851;SDS011;11592;45.460;9.240;2022-07-01T09:02:02;7.40;;;1.58;;
22851;SDS011;11592;45.460;9.240;2022-07-01T09:04:31;6.47;;;2.08;;
22851;SDS011;11592;45.460;9.240;2022-07-01T09:07:01;5.30;;;1.80;;
22851;SDS011;11592;45.460;9.240;2022-07-01T09:09:28;4.88;;;2.80;;
22851;SDS011;11592;45.460;9.240;2022-07-01T09:11:55;4.82;;;1.70;;
22851;SDS011;11592;45.460;9.240;2022-07-01T09:14:24;2.47;;;1.60;;
22851;SDS011;11592;45.460;9.240;2022-07-01T09:16:53;9.38;;;1.85;;
22851;SDS011;11592;45.460;9.240;2022-07-01T09:19:25;4.78;;;1.85;;
22851;SDS011;11592;45.460;9.240;2022-07-01T09:21:54;3.95;;;1.83;;
22851;SDS011;11592;45.460;9.240;2022-07-01T09:24:26;6.15;;;2.20;;
22851;SDS011;11592;45.460;9.240;2022-07-01T09:26:58;5.35;;;2.10;;
22851;SDS011;11592;45.460;9.240;2022-07-01T09:29:45;10.85;;;1.80;;
22851;SDS011;11592;45.460;9.240;2022-07-01T09:32:16;3.50;;;1.60;;
22851;SDS011;11592;45.460;9.240;2022-07-01T09:34:45;7.40;;;2.40;;
22851;SDS011;11592;45.460;9.240;2022-07-01T09:37:14;3.55;;;1.90;;
22851;SDS011;11592;45.460;9.240;2022-07-01T09:42:14;12.20;;;2.40;;
22851;SDS011;11592;45.460;9.240;2022-07-01T09:47:29;6.82;;;3.13;;
22851;SDS011;11592;45.460;9.240;2022-07-01T09:49:57;3.10;;;1.92;;
22851;SDS011;11592;45.460;9.240;2022-07-01T09:52:24;5.82;;;1.90;;
22851;SDS011;11592;45.460;9.240;2022-07-01T09:54:51;5.07;;;1.77;;
22851;SDS011;11592;45.460;9.240;2022-07-01T09:57:19;5.78;;;1.90;;
22851;SDS011;11592;45.460;9.240;2022-07-01T09:59:47;3.10;;;1.80;;
22851;SDS011;11592;45.460;9.240;2022-07-01T10:02:15;5.15;;;1.80;;
22851;SDS011;11592;45.460;9.240;2022-07-01T10:04:49;3.28;;;1.70;;
22851;SDS011;11592;45.460;9.240;2022-07-01T10:09:55;3.80;;;1.80;;
22851;SDS011;11592;45.460;9.240;2022-07-01T10:12:42;5.53;;;2.00;;
22851;SDS011;11592;45.460;9.240;2022-07-01T10:15:14;4.63;;;2.00;;
22851;SDS011;11592;45.460;9.240;2022-07-01T10:17:45;6.40;;;1.88;;
22851;SDS011;11592;45.460;9.240;2022-07-01T10:20:17;3.90;;;1.98;;
22851;SDS011;11592;45.460;9.240;2022-07-01T10:22:49;3.20;;;1.77;;
22851;SDS011;11592;45.460;9.240;2022-07-01T10:28:13;5.88;;;2.40;;
22851;SDS011;11592;45.460;9.240;2022-07-01T10:33:44;5.32;;;2.10;;
22851;SDS011;11592;45.460;9.240;2022-07-01T10:41:36;5.00;;;2.17;;
22851;SDS011;11592;45.460;9.240;2022-07-01T10:44:39;4.03;;;2.00;;
22851;SDS011;11592;45.460;9.240;2022-07-01T10:47:07;5.35;;;1.92;;
22851;SDS011;11592;45.460;9.240;2022-07-01T10:52:10;3.83;;;2.25;;
22851;SDS011;11592;45.460;9.240;2022-07-01T10:59:54;5.50;;;1.63;;
22851;SDS011;11592;45.460;9.240;2022-07-01T11:02:28;6.07;;;2.10;;
22851;SDS011;11592;45.460;9.240;2022-07-01T11:07:29;3.85;;;1.73;;
22851;SDS011;11592;45.460;9.240;2022-07-01T11:09:58;4.28;;;1.77;;
22851;SDS011;11592;45.460;9.240;2022-07-01T11:12:27;4.80;;;2.17;;
22851;SDS011;11592;45.460;9.240;2022-07-01T11:14:56;6.18;;;2.03;;
22851;SDS011;11592;45.460;9.240;2022-07-01T11:17:25;3.13;;;1.85;;
22851;SDS011;11592;45.460;9.240;2022-07-01T11:19:53;3.85;;;1.73;;
22851;SDS011;11592;45.460;9.240;2022-07-01T11:22:25;5.95;;;2.08;;
22851;SDS011;11592;45.460;9.240;2022-07-01T11:24:58;3.33;;;1.90;;
22851;SDS011;11592;45.460;9.240;2022-07-01T11:27:26;2.75;;;1.83;;
22851;SDS011;11592;45.460;9.240;2022-07-01T11:29:55;4.43;;;1.80;;
22851;SDS011;11592;45.460;9.240;2022-07-01T11:32:27;10.02;;;2.35;;
22851;SDS011;11592;45.460;9.240;2022-07-01T11:34:55;5.25;;;2.03;;
22851;SDS011;11592;45.460;9.240;2022-07-01T11:37:26;5.47;;;2.05;;
22851;SDS011;11592;45.460;9.240;2022-07-01T11:40:13;6.65;;;2.10;;
22851;SDS011;11592;45.460;9.240;2022-07-01T11:42:41;5.20;;;1.98;;
22851;SDS011;11592;45.460;9.240;2022-07-01T11:45:24;4.82;;;2.25;;
22851;SDS011;11592;45.460;9.240;2022-07-01T11:47:52;5.20;;;1.80;;
22851;SDS011;11592;45.460;9.240;2022-07-01T11:50:19;3.60;;;1.80;;
22851;SDS011;11592;45.460;9.240;2022-07-01T11:52:47;6.47;;;1.83;;
22851;SDS011;11592;45.460;9.240;2022-07-01T11:55:18;2.50;;;1.83;;
22851;SDS011;11592;45.460;9.240;2022-07-01T11:58:02;11.02;;;2.40;;
22851;SDS011;11592;45.460;9.240;2022-07-01T12:00:34;3.75;;;1.80;;
22851;SDS011;11592;45.460;9.240;2022-07-01T12:03:01;5.05;;;1.80;;
22851;SDS011;11592;45.460;9.240;2022-07-01T12:05:28;5.90;;;2.40;;
22851;SDS011;11592;45.460;9.240;2022-07-01T12:08:03;6.30;;;2.47;;
22851;SDS011;11592;45.460;9.240;2022-07-01T12:10:30;7.72;;;2.33;;
22851;SDS011;11592;45.460;9.240;2022-07-01T12:12:58;7.03;;;2.25;;
22851;SDS011;11592;45.460;9.240;2022-07-01T12:15:25;7.35;;;2.38;;
22851;SDS011;11592;45.460;9.240;2022-07-01T12:18:04;3.60;;;1.77;;
22851;SDS011;11592;45.460;9.240;2022-07-01T12:20:31;8.20;;;1.90;;
22851;SDS011;11592;45.460;9.240;2022-07-01T12:23:11;7.38;;;2.03;;
22851;SDS011;11592;45.460;9.240;2022-07-01T12:25:51;6.07;;;2.08;;
22851;SDS011;11592;45.460;9.240;2022-07-01T12:31:01;5.82;;;2.00;;
22851;SDS011;11592;45.460;9.240;2022-07-01T12:33:36;7.57;;;2.25;;
22851;SDS011;11592;45.460;9.240;2022-07-01T12:36:05;4.20;;;2.05;;
22851;SDS011;11592;45.460;9.240;2022-07-01T12:38:33;4.40;;;2.20;;
22851;SDS011;11592;45.460;9.240;2022-07-01T12:41:01;5.15;;;2.10;;
22851;SDS011;11592;45.460;9.240;2022-07-01T12:43:29;2.92;;;1.80;;
22851;SDS011;11592;45.460;9.240;2022-07-01T12:45:58;4.35;;;2.03;;
22851;SDS011;11592;45.460;9.240;2022-07-01T12:48:26;3.05;;;1.98;;
22851;SDS011;11592;45.460;9.240;2022-07-01T12:50:57;9.73;;;2.10;;
22851;SDS011;11592;45.460;9.240;2022-07-01T12:53:24;4.15;;;2.17;;
22851;SDS011;11592;45.460;9.240;2022-07-01T12:55:55;11.57;;;2.47;;
22851;SDS011;11592;45.460;9.240;2022-07-01T12:58:24;7.82;;;2.00;;
22851;SDS011;11592;45.460;9.240;2022-07-01T13:00:53;5.15;;;2.20;;
22851;SDS011;11592;45.460;9.240;2022-07-01T13:03:22;8.95;;;2.22;;
22851;SDS011;11592;45.460;9.240;2022-07-01T13:05:54;5.47;;;1.80;;
22851;SDS011;11592;45.460;9.240;2022-07-01T13:08:22;5.20;;;2.42;;
22851;SDS011;11592;45.460;9.240;2022-07-01T13:10:49;7.57;;;2.13;;
22851;SDS011;11592;45.460;9.240;2022-07-01T13:13:17;3.47;;;2.00;;
22851;SDS011;11592;45.460;9.240;2022-07-01T13:15:44;6.47;;;1.95;;
22851;SDS011;11592;45.460;9.240;2022-07-01T13:18:11;3.63;;;1.80;;
22851;SDS011;11592;45.460;9.240;2022-07-01T13:20:41;4.93;;;1.95;;
22851;SDS011;11592;45.460;9.240;2022-07-01T13:23:08;6.45;;;1.80;;
22851;SDS011;11592;45.460;9.240;2022-07-01T13:25:36;11.85;;;2.13;;
22851;SDS011;11592;45.460;9.240;2022-07-01T13:28:03;3.80;;;2.00;;
22851;SDS011;11592;45.460;9.240;2022-07-01T13:30:30;8.15;;;1.55;;
22851;SDS011;11592;45.460;9.240;2022-07-01T13:32:58;6.22;;;2.10;;
22851;SDS011;11592;45.460;9.240;2022-07-01T13:35:25;7.78;;;2.00;;
22851;SDS011;11592;45.460;9.240;2022-07-01T13:37:52;8.50;;;3.00;;
22851;SDS011;11592;45.460;9.240;2022-07-01T13:40:19;5.95;;;1.98;;
22851;SDS011;11592;45.460;9.240;2022-07-01T13:42:47;6.15;;;1.95;;
22851;SDS011;11592;45.460;9.240;2022-07-01T13:45:14;8.18;;;2.17;;
22851;SDS011;11592;45.460;9.240;2022-07-01T13:47:41;3.80;;;1.90;;
22851;SDS011;11592;45.460;9.240;2022-07-01T13:50:08;4.07;;;1.70;;
22851;SDS011;11592;45.460;9.240;2022-07-01T13:52:36;4.68;;;1.90;;
22851;SDS011;11592;45.460;9.240;2022-07-01T13:55:06;6.05;;;1.88;;
22851;SDS011;11592;45.460;9.240;2022-07-01T13:57:33;6.32;;;1.75;;
22851;SDS011;11592;45.460;9.240;2022-07-01T14:00:00;8.13;;;2.10;;
22851;SDS011;11592;45.460;9.240;2022-07-01T14:02:27;7.00;;;1.80;;
22851;SDS011;11592;45.460;9.240;2022-07-01T14:04:54;4.32;;;2.28;;
22851;SDS011;11592;45.460;9.240;2022-07-01T14:07:21;7.10;;;2.15;;
22851;SDS011;11592;45.460;9.240;2022-07-01T14:09:47;4.40;;;1.75;;
22851;SDS011;11592;45.460;9.240;2022-07-01T14:12:14;5.25;;;1.80;;
22851;SDS011;11592;45.460;9.240;2022-07-01T14:14:52;3.97;;;1.60;;
22851;SDS011;11592;45.460;9.240;2022-07-01T14:17:20;4.07;;;1.85;;
22851;SDS011;11592;45.460;9.240;2022-07-01T14:19:47;5.10;;;2.10;;
22851;SDS011;11592;45.460;9.240;2022-07-01T14:22:14;3.17;;;1.60;;
22851;SDS011;11592;45.460;9.240;2022-07-01T14:24:40;4.45;;;2.03;;
22851;SDS011;11592;45.460;9.240;2022-07-01T14:27:08;3.97;;;1.70;;
22851;SDS011;11592;45.460;9.240;2022-07-01T14:29:35;3.67;;;1.90;;
22851;SDS011;11592;45.460;9.240;2022-07-01T14:32:02;5.28;;;2.08;;
22851;SDS011;11592;45.460;9.240;2022-07-01T14:34:29;3.20;;;1.83;;
22851;SDS011;11592;45.460;9.240;2022-07-01T14:36:55;6.18;;;2.40;;
22851;SDS011;11592;45.460;9.240;2022-07-01T14:39:22;4.78;;;1.90;;
22851;SDS011;11592;45.460;9.240;2022-07-01T14:41:49;6.53;;;2.08;;
22851;SDS011;11592;45.460;9.240;2022-07-01T14:44:22;6.88;;;2.17;;
22851;SDS011;11592;45.460;9.240;2022-07-01T14:46:49;4.68;;;2.00;;
22851;SDS011;11592;45.460;9.240;2022-07-01T14:49:17;6.55;;;2.45;;
22851;SDS011;11592;45.460;9.240;2022-07-01T14:51:44;5.05;;;1.92;;
22851;SDS011;11592;45.460;9.240;2022-07-01T14:54:11;7.03;;;2.15;;
22851;SDS011;11592;45.460;9.240;2022-07-01T14:56:38;3.58;;;1.73;;
22851;SDS011;11592;45.460;9.240;2022-07-01T14:59:05;5.40;;;2.05;;
22851;SDS011;11592;45.460;9.240;2022-07-01T15:01:35;4.22;;;1.95;;
22851;SDS011;11592;45.460;9.240;2022-07-01T15:04:03;3.75;;;2.00;;
22851;SDS011;11592;45.460;9.240;2022-07-01T15:06:30;4.55;;;2.13;;
22851;SDS011;11592;45.460;9.240;2022-07-01T15:08:57;5.93;;;1.98;;
22851;SDS011;11592;45.460;9.240;2022-07-01T15:11:23;4.20;;;2.55;;
22851;SDS011;11592;45.460;9.240;2022-07-01T15:13:50;4.32;;;1.92;;
22851;SDS011;11592;45.460;9.240;2022-07-01T15:16:17;3.92;;;1.80;;
22851;SDS011;11592;45.460;9.240;2022-07-01T15:18:45;4.88;;;1.75;;
22851;SDS011;11592;45.460;9.240;2022-07-01T15:21:12;3.28;;;2.25;;